KSAN/SAN METAR and TAF weather

Enter ICAO airport designator
Station Type Date Time Source
KSAN METAR 2021/09/28 16:51 UTC NOAA

KSAN 281651Z 22005KT 10SM FEW015 OVC029 21/14 A2998 RMK AO2 SLP151 T02060144


Station Type Date Time Source
KSAN Decoded METAR 2021/09/28 16:51 UTC NOAA

SAN DIEGO INTERNATIONAL \LINDBERGH FLD, CA, United States (KSAN) 32-44N 117-11W 12M
Sep 28, 2021 - 12:51 PM EDT / 2021.09.28 1651 UTC
Wind: from the SW (220 degrees) at 6 MPH (5 KT):0
Visibility: 10 mile(s):0
Sky conditions: overcast
Temperature: 69.1 F (20.6 C)
Dew Point: 57.9 F (14.4 C)
Relative Humidity: 67%
Pressure (altimeter): 29.98 in. Hg (1015 hPa)
ob: KSAN 281651Z 22005KT 10SM FEW015 OVC029 21/14 A2998 RMK AO2 SLP151 T02060144
cycle: 17

Station Type Date Time Source
KSAN TAF 2021/09/28 18:42 UTC NOAA

TAF KSAN 281740Z 2818/2924 VRB04KT P6SM OVC030
FM282000 24009KT P6SM BKN030
FM290300 21006KT P6SM OVC025
FM290800 19008KT P6SM OVC028
FM291600 VRB04KT P6SM BKN025
FM292000 24009KT P6SM SCT030

Example: see airport list